sensor_id;sensor_type;location;lat;lon;timestamp;temperature;humidity
46378;DHT22;32083;47.360;9.650;2022-10-16T00:00:49;15.30;99.90
46378;DHT22;32083;47.360;9.650;2022-10-16T00:03:14;15.30;99.90
46378;DHT22;32083;47.360;9.650;2022-10-16T00:06:00;15.20;99.90
46378;DHT22;32083;47.360;9.650;2022-10-16T00:11:49;15.20;99.90
46378;DHT22;32083;47.360;9.650;2022-10-16T00:14:34;15.10;99.90
46378;DHT22;32083;47.360;9.650;2022-10-16T00:17:05;15.10;99.90
46378;DHT22;32083;47.360;9.650;2022-10-16T00:19:31;15.10;99.90
46378;DHT22;32083;47.360;9.650;2022-10-16T00:22:38;15.20;99.90
46378;DHT22;32083;47.360;9.650;2022-10-16T00:25:10;15.10;99.90
46378;DHT22;32083;47.360;9.650;2022-10-16T00:27:39;15.20;99.90
46378;DHT22;32083;47.360;9.650;2022-10-16T00:30:08;15.20;99.90
46378;DHT22;32083;47.360;9.650;2022-10-16T00:33:20;15.20;99.90
46378;DHT22;32083;47.360;9.650;2022-10-16T00:36:45;15.20;99.90
46378;DHT22;32083;47.360;9.650;2022-10-16T00:39:31;15.20;99.90
46378;DHT22;32083;47.360;9.650;2022-10-16T00:42:25;15.20;99.90
46378;DHT22;32083;47.360;9.650;2022-10-16T00:45:25;15.20;99.90
46378;DHT22;32083;47.360;9.650;2022-10-16T00:48:03;15.20;99.90
46378;DHT22;32083;47.360;9.650;2022-10-16T00:51:11;15.20;99.90
46378;DHT22;32083;47.360;9.650;2022-10-16T00:53:37;15.30;99.90
46378;DHT22;32083;47.360;9.650;2022-10-16T00:56:50;15.30;99.90
46378;DHT22;32083;47.360;9.650;2022-10-16T01:00:25;15.30;99.90
46378;DHT22;32083;47.360;9.650;2022-10-16T01:03:44;15.30;99.90
46378;DHT22;32083;47.360;9.650;2022-10-16T01:12:51;15.20;99.90
46378;DHT22;32083;47.360;9.650;2022-10-16T01:19:11;15.10;99.90
46378;DHT22;32083;47.360;9.650;2022-10-16T01:22:43;15.10;99.90
46378;DHT22;32083;47.360;9.650;2022-10-16T01:31:44;15.00;99.90
46378;DHT22;32083;47.360;9.650;2022-10-16T01:38:31;15.00;99.90
46378;DHT22;32083;47.360;9.650;2022-10-16T01:44:03;15.00;99.90
46378;DHT22;32083;47.360;9.650;2022-10-16T01:49:56;15.00;99.90
46378;DHT22;32083;47.360;9.650;2022-10-16T01:52:45;15.00;99.90
46378;DHT22;32083;47.360;9.650;2022-10-16T02:05:11;15.10;99.90
46378;DHT22;32083;47.360;9.650;2022-10-16T02:08:06;15.10;99.90
46378;DHT22;32083;47.360;9.650;2022-10-16T02:13:19;15.10;99.90
46378;DHT22;32083;47.360;9.650;2022-10-16T02:16:32;15.10;99.90
46378;DHT22;32083;47.360;9.650;2022-10-16T02:19:46;15.10;99.90
46378;DHT22;32083;47.360;9.650;2022-10-16T02:22:38;15.10;99.90
46378;DHT22;32083;47.360;9.650;2022-10-16T02:28:22;15.20;99.90
46378;DHT22;32083;47.360;9.650;2022-10-16T02:31:25;15.20;99.90
46378;DHT22;32083;47.360;9.650;2022-10-16T02:38:03;15.20;99.90
46378;DHT22;32083;47.360;9.650;2022-10-16T02:46:25;15.10;99.90
46378;DHT22;32083;47.360;9.650;2022-10-16T02:49:11;15.10;99.90
46378;DHT22;32083;47.360;9.650;2022-10-16T02:52:01;15.00;99.90
46378;DHT22;32083;47.360;9.650;2022-10-16T02:54:29;15.00;99.90
46378;DHT22;32083;47.360;9.650;2022-10-16T02:56:55;15.00;99.90
46378;DHT22;32083;47.360;9.650;2022-10-16T02:59:44;14.90;99.90
46378;DHT22;32083;47.360;9.650;2022-10-16T03:02:11;14.80;99.90
46378;DHT22;32083;47.360;9.650;2022-10-16T03:04:44;14.80;99.90
46378;DHT22;32083;47.360;9.650;2022-10-16T03:07:44;14.80;99.90
46378;DHT22;32083;47.360;9.650;2022-10-16T03:10:09;14.70;99.90
46378;DHT22;32083;47.360;9.650;2022-10-16T03:12:35;14.70;99.90
46378;DHT22;32083;47.360;9.650;2022-10-16T03:21:44;14.60;99.90
46378;DHT22;32083;47.360;9.650;2022-10-16T03:24:34;14.60;99.90
46378;DHT22;32083;47.360;9.650;2022-10-16T03:27:19;14.50;99.90
46378;DHT22;32083;47.360;9.650;2022-10-16T03:29:48;14.50;99.90
46378;DHT22;32083;47.360;9.650;2022-10-16T03:32:33;14.40;99.90
46378;DHT22;32083;47.360;9.650;2022-10-16T03:35:17;14.40;99.90
46378;DHT22;32083;47.360;9.650;2022-10-16T03:37:43;14.40;99.90
46378;DHT22;32083;47.360;9.650;2022-10-16T03:40:31;14.40;99.90
46378;DHT22;32083;47.360;9.650;2022-10-16T03:43:21;14.40;99.90
46378;DHT22;32083;47.360;9.650;2022-10-16T03:46:08;14.30;99.90
46378;DHT22;32083;47.360;9.650;2022-10-16T03:49:14;14.40;99.90
46378;DHT22;32083;47.360;9.650;2022-10-16T03:54:35;14.40;99.90
46378;DHT22;32083;47.360;9.650;2022-10-16T03:57:33;14.40;99.90
46378;DHT22;32083;47.360;9.650;2022-10-16T04:00:40;14.40;99.90
46378;DHT22;32083;47.360;9.650;2022-10-16T04:03:42;14.40;99.90
46378;DHT22;32083;47.360;9.650;2022-10-16T04:06:41;14.40;99.90
46378;DHT22;32083;47.360;9.650;2022-10-16T04:09:07;14.40;99.90
46378;DHT22;32083;47.360;9.650;2022-10-16T04:12:16;14.50;99.90
46378;DHT22;32083;47.360;9.650;2022-10-16T04:14:43;14.50;99.90
46378;DHT22;32083;47.360;9.650;2022-10-16T04:17:41;14.50;99.90
46378;DHT22;32083;47.360;9.650;2022-10-16T04:20:37;14.50;99.90
46378;DHT22;32083;47.360;9.650;2022-10-16T04:23:09;14.50;99.90
46378;DHT22;32083;47.360;9.650;2022-10-16T04:25:54;14.50;99.90
46378;DHT22;32083;47.360;9.650;2022-10-16T04:28:57;14.60;99.90
46378;DHT22;32083;47.360;9.650;2022-10-16T04:31:28;14.50;99.90
46378;DHT22;32083;47.360;9.650;2022-10-16T04:34:14;14.50;99.90
46378;DHT22;32083;47.360;9.650;2022-10-16T04:36:39;14.40;99.90
46378;DHT22;32083;47.360;9.650;2022-10-16T04:39:45;14.30;99.90
46378;DHT22;32083;47.360;9.650;2022-10-16T04:42:13;14.40;99.90
46378;DHT22;32083;47.360;9.650;2022-10-16T04:44:40;14.30;99.90
46378;DHT22;32083;47.360;9.650;2022-10-16T04:47:08;14.30;99.90
46378;DHT22;32083;47.360;9.650;2022-10-16T04:52:41;14.30;99.90
46378;DHT22;32083;47.360;9.650;2022-10-16T04:55:30;14.20;99.90
46378;DHT22;32083;47.360;9.650;2022-10-16T04:58:18;14.10;99.90
46378;DHT22;32083;47.360;9.650;2022-10-16T05:01:00;14.10;99.90
46378;DHT22;32083;47.360;9.650;2022-10-16T05:03:26;14.00;99.90
46378;DHT22;32083;47.360;9.650;2022-10-16T05:06:44;14.10;99.90
46378;DHT22;32083;47.360;9.650;2022-10-16T05:09:14;14.10;99.90
46378;DHT22;32083;47.360;9.650;2022-10-16T05:11:43;14.10;99.90
46378;DHT22;32083;47.360;9.650;2022-10-16T05:14:35;14.00;99.90
46378;DHT22;32083;47.360;9.650;2022-10-16T05:17:20;14.00;99.90
46378;DHT22;32083;47.360;9.650;2022-10-16T05:19:47;13.90;99.90
46378;DHT22;32083;47.360;9.650;2022-10-16T05:22:13;13.90;99.90
46378;DHT22;32083;47.360;9.650;2022-10-16T05:24:38;13.90;99.90
46378;DHT22;32083;47.360;9.650;2022-10-16T05:27:05;14.00;99.90
46378;DHT22;32083;47.360;9.650;2022-10-16T05:29:30;14.00;99.90
46378;DHT22;32083;47.360;9.650;2022-10-16T05:31:57;14.00;99.90
46378;DHT22;32083;47.360;9.650;2022-10-16T05:34:23;14.00;99.90
46378;DHT22;32083;47.360;9.650;2022-10-16T05:36:49;14.00;99.90
46378;DHT22;32083;47.360;9.650;2022-10-16T05:39:16;14.00;99.90
46378;DHT22;32083;47.360;9.650;2022-10-16T05:41:43;14.00;99.90
46378;DHT22;32083;47.360;9.650;2022-10-16T05:44:09;13.90;99.90
46378;DHT22;32083;47.360;9.650;2022-10-16T05:46:35;13.90;99.90
46378;DHT22;32083;47.360;9.650;2022-10-16T05:49:01;13.80;99.90
46378;DHT22;32083;47.360;9.650;2022-10-16T05:51:27;13.80;99.90
46378;DHT22;32083;47.360;9.650;2022-10-16T05:53:53;13.80;99.90
46378;DHT22;32083;47.360;9.650;2022-10-16T05:56:19;13.80;99.90
46378;DHT22;32083;47.360;9.650;2022-10-16T05:58:45;13.80;99.90
46378;DHT22;32083;47.360;9.650;2022-10-16T06:01:14;13.80;99.90
46378;DHT22;32083;47.360;9.650;2022-10-16T06:03:40;13.90;99.90
46378;DHT22;32083;47.360;9.650;2022-10-16T06:06:18;13.80;99.90
46378;DHT22;32083;47.360;9.650;2022-10-16T06:08:46;13.90;99.90
46378;DHT22;32083;47.360;9.650;2022-10-16T06:11:14;13.90;99.90
46378;DHT22;32083;47.360;9.650;2022-10-16T06:13:41;13.90;99.90
46378;DHT22;32083;47.360;9.650;2022-10-16T06:16:09;13.90;99.90
46378;DHT22;32083;47.360;9.650;2022-10-16T06:18:36;13.80;99.90
46378;DHT22;32083;47.360;9.650;2022-10-16T06:21:08;13.80;99.90
46378;DHT22;32083;47.360;9.650;2022-10-16T06:23:35;13.80;99.90
46378;DHT22;32083;47.360;9.650;2022-10-16T06:26:09;13.90;99.90
46378;DHT22;32083;47.360;9.650;2022-10-16T06:28:35;13.90;99.90
46378;DHT22;32083;47.360;9.650;2022-10-16T06:31:02;14.00;99.90
46378;DHT22;32083;47.360;9.650;2022-10-16T06:33:28;14.00;99.90
46378;DHT22;32083;47.360;9.650;2022-10-16T06:36:04;14.10;99.90
46378;DHT22;32083;47.360;9.650;2022-10-16T06:38:31;14.10;99.90
46378;DHT22;32083;47.360;9.650;2022-10-16T06:40:57;14.10;99.90
46378;DHT22;32083;47.360;9.650;2022-10-16T06:43:23;14.10;99.90
46378;DHT22;32083;47.360;9.650;2022-10-16T06:45:53;14.10;99.90
46378;DHT22;32083;47.360;9.650;2022-10-16T06:48:20;14.10;99.90
46378;DHT22;32083;47.360;9.650;2022-10-16T06:51:01;14.10;99.90
46378;DHT22;32083;47.360;9.650;2022-10-16T06:53:32;14.20;99.90
46378;DHT22;32083;47.360;9.650;2022-10-16T06:56:07;14.20;99.90
46378;DHT22;32083;47.360;9.650;2022-10-16T06:58:33;14.30;99.90
46378;DHT22;32083;47.360;9.650;2022-10-16T07:00:59;14.50;99.90
46378;DHT22;32083;47.360;9.650;2022-10-16T07:03:25;14.50;99.90
46378;DHT22;32083;47.360;9.650;2022-10-16T07:05:50;14.60;99.90
46378;DHT22;32083;47.360;9.650;2022-10-16T07:08:16;14.70;99.90
46378;DHT22;32083;47.360;9.650;2022-10-16T07:10:42;14.90;99.90
46378;DHT22;32083;47.360;9.650;2022-10-16T07:13:08;15.10;99.90
46378;DHT22;32083;47.360;9.650;2022-10-16T07:15:38;15.40;99.90
46378;DHT22;32083;47.360;9.650;2022-10-16T07:18:04;15.60;99.90
46378;DHT22;32083;47.360;9.650;2022-10-16T07:20:30;15.80;99.90
46378;DHT22;32083;47.360;9.650;2022-10-16T07:22:56;16.00;99.90
46378;DHT22;32083;47.360;9.650;2022-10-16T07:25:21;16.10;99.90
46378;DHT22;32083;47.360;9.650;2022-10-16T07:27:47;16.30;99.90
46378;DHT22;32083;47.360;9.650;2022-10-16T07:30:13;16.60;99.90
46378;DHT22;32083;47.360;9.650;2022-10-16T07:32:39;16.70;99.90
46378;DHT22;32083;47.360;9.650;2022-10-16T07:35:06;16.90;99.90
46378;DHT22;32083;47.360;9.650;2022-10-16T07:37:32;17.00;99.90
46378;DHT22;32083;47.360;9.650;2022-10-16T07:39:58;17.20;99.90
46378;DHT22;32083;47.360;9.650;2022-10-16T07:42:24;17.40;99.90
46378;DHT22;32083;47.360;9.650;2022-10-16T07:44:50;17.50;99.90
46378;DHT22;32083;47.360;9.650;2022-10-16T07:47:16;17.60;99.90
46378;DHT22;32083;47.360;9.650;2022-10-16T07:49:42;17.50;99.90
46378;DHT22;32083;47.360;9.650;2022-10-16T07:52:08;17.50;99.90
46378;DHT22;32083;47.360;9.650;2022-10-16T07:54:34;17.50;99.90
46378;DHT22;32083;47.360;9.650;2022-10-16T07:57:00;17.50;99.90
46378;DHT22;32083;47.360;9.650;2022-10-16T07:59:25;17.40;99.90
46378;DHT22;32083;47.360;9.650;2022-10-16T08:01:51;17.30;99.90
46378;DHT22;32083;47.360;9.650;2022-10-16T08:04:17;17.30;99.90
46378;DHT22;32083;47.360;9.650;2022-10-16T08:06:43;17.20;99.90
46378;DHT22;32083;47.360;9.650;2022-10-16T08:09:09;17.20;99.90
46378;DHT22;32083;47.360;9.650;2022-10-16T08:11:35;17.20;99.90
46378;DHT22;32083;47.360;9.650;2022-10-16T08:14:01;17.20;99.90
46378;DHT22;32083;47.360;9.650;2022-10-16T08:16:27;17.20;99.90
46378;DHT22;32083;47.360;9.650;2022-10-16T08:18:53;17.30;99.90
46378;DHT22;32083;47.360;9.650;2022-10-16T08:21:21;17.30;99.90
46378;DHT22;32083;47.360;9.650;2022-10-16T08:23:49;17.30;99.90
46378;DHT22;32083;47.360;9.650;2022-10-16T08:26:15;17.40;99.90
46378;DHT22;32083;47.360;9.650;2022-10-16T08:28:41;17.40;99.90
46378;DHT22;32083;47.360;9.650;2022-10-16T08:31:13;17.50;99.60
46378;DHT22;32083;47.360;9.650;2022-10-16T08:33:42;17.60;99.90
46378;DHT22;32083;47.360;9.650;2022-10-16T08:36:09;17.80;99.60
46378;DHT22;32083;47.360;9.650;2022-10-16T08:38:36;18.00;98.80
46378;DHT22;32083;47.360;9.650;2022-10-16T08:46:46;18.40;99.00
46378;DHT22;32083;47.360;9.650;2022-10-16T08:49:13;18.40;98.60
46378;DHT22;32083;47.360;9.650;2022-10-16T08:51:40;18.50;99.10
46378;DHT22;32083;47.360;9.650;2022-10-16T08:54:37;18.50;98.80
46378;DHT22;32083;47.360;9.650;2022-10-16T08:57:19;18.40;98.70
46378;DHT22;32083;47.360;9.650;2022-10-16T08:59:45;18.40;98.40
46378;DHT22;32083;47.360;9.650;2022-10-16T09:11:36;18.50;98.30
46378;DHT22;32083;47.360;9.650;2022-10-16T09:13:43;18.40;97.90
46378;DHT22;32083;47.360;9.650;2022-10-16T09:16:27;18.40;97.60
46378;DHT22;32083;47.360;9.650;2022-10-16T09:19:13;18.50;97.50
46378;DHT22;32083;47.360;9.650;2022-10-16T09:21:45;18.50;97.20
46378;DHT22;32083;47.360;9.650;2022-10-16T09:24:15;18.50;97.20
46378;DHT22;32083;47.360;9.650;2022-10-16T09:26:42;18.50;96.90
46378;DHT22;32083;47.360;9.650;2022-10-16T09:29:19;18.60;96.90
46378;DHT22;32083;47.360;9.650;2022-10-16T09:31:51;18.60;97.40
46378;DHT22;32083;47.360;9.650;2022-10-16T09:34:29;18.60;97.60
46378;DHT22;32083;47.360;9.650;2022-10-16T09:36:57;18.60;97.20
46378;DHT22;32083;47.360;9.650;2022-10-16T09:39:24;18.60;98.00
46378;DHT22;32083;47.360;9.650;2022-10-16T09:41:51;18.80;97.50
46378;DHT22;32083;47.360;9.650;2022-10-16T09:44:27;18.80;97.50
46378;DHT22;32083;47.360;9.650;2022-10-16T09:47:13;18.80;96.10
46378;DHT22;32083;47.360;9.650;2022-10-16T09:49:54;18.90;96.80
46378;DHT22;32083;47.360;9.650;2022-10-16T09:52:22;18.80;96.30
46378;DHT22;32083;47.360;9.650;2022-10-16T09:55:00;18.90;97.60
46378;DHT22;32083;47.360;9.650;2022-10-16T09:57:26;18.90;97.40
46378;DHT22;32083;47.360;9.650;2022-10-16T09:59:54;19.00;96.50
46378;DHT22;32083;47.360;9.650;2022-10-16T10:02:29;18.90;96.40
46378;DHT22;32083;47.360;9.650;2022-10-16T10:04:56;18.90;95.60
46378;DHT22;32083;47.360;9.650;2022-10-16T10:07:39;18.90;96.50
46378;DHT22;32083;47.360;9.650;2022-10-16T10:10:41;19.00;96.40
46378;DHT22;32083;47.360;9.650;2022-10-16T10:13:21;19.00;95.80
46378;DHT22;32083;47.360;9.650;2022-10-16T10:15:47;19.00;95.70
46378;DHT22;32083;47.360;9.650;2022-10-16T10:18:21;19.10;95.20
46378;DHT22;32083;47.360;9.650;2022-10-16T10:21:02;19.10;95.00
46378;DHT22;32083;47.360;9.650;2022-10-16T10:23:30;19.20;95.90
46378;DHT22;32083;47.360;9.650;2022-10-16T10:26:11;19.10;95.40
46378;DHT22;32083;47.360;9.650;2022-10-16T10:28:54;19.20;94.80
46378;DHT22;32083;47.360;9.650;2022-10-16T10:31:41;19.20;95.00
46378;DHT22;32083;47.360;9.650;2022-10-16T10:37:22;19.30;96.50
46378;DHT22;32083;47.360;9.650;2022-10-16T10:42:47;19.60;94.30
46378;DHT22;32083;47.360;9.650;2022-10-16T10:45:24;19.60;94.90
46378;DHT22;32083;47.360;9.650;2022-10-16T10:48:30;19.60;95.90
46378;DHT22;32083;47.360;9.650;2022-10-16T10:51:08;19.60;95.80
46378;DHT22;32083;47.360;9.650;2022-10-16T10:57:27;19.60;94.20
46378;DHT22;32083;47.360;9.650;2022-10-16T11:03:35;19.60;94.10
46378;DHT22;32083;47.360;9.650;2022-10-16T11:06:20;19.70;94.20
46378;DHT22;32083;47.360;9.650;2022-10-16T11:11:47;19.70;93.80
46378;DHT22;32083;47.360;9.650;2022-10-16T11:14:31;19.70;94.80
46378;DHT22;32083;47.360;9.650;2022-10-16T11:22:22;20.10;93.60
46378;DHT22;32083;47.360;9.650;2022-10-16T11:27:19;20.10;93.90
46378;DHT22;32083;47.360;9.650;2022-10-16T11:30:02;20.00;94.00
46378;DHT22;32083;47.360;9.650;2022-10-16T11:32:33;20.10;93.50
46378;DHT22;32083;47.360;9.650;2022-10-16T11:35:51;20.30;93.60
46378;DHT22;32083;47.360;9.650;2022-10-16T11:37:57;20.40;93.20
46378;DHT22;32083;47.360;9.650;2022-10-16T11:40:42;20.40;93.30
46378;DHT22;32083;47.360;9.650;2022-10-16T11:43:22;20.40;92.10
46378;DHT22;32083;47.360;9.650;2022-10-16T11:45:52;20.40;92.10
46378;DHT22;32083;47.360;9.650;2022-10-16T11:53:58;20.50;91.40
46378;DHT22;32083;47.360;9.650;2022-10-16T11:56:25;20.40;91.00
46378;DHT22;32083;47.360;9.650;2022-10-16T12:01:41;20.40;91.90
46378;DHT22;32083;47.360;9.650;2022-10-16T12:04:35;20.40;92.00
46378;DHT22;32083;47.360;9.650;2022-10-16T12:07:08;20.60;90.90
46378;DHT22;32083;47.360;9.650;2022-10-16T12:09:41;20.70;90.90
46378;DHT22;32083;47.360;9.650;2022-10-16T12:12:28;20.60;91.70
46378;DHT22;32083;47.360;9.650;2022-10-16T12:15:24;20.70;90.50
46378;DHT22;32083;47.360;9.650;2022-10-16T12:17:51;20.80;90.70
46378;DHT22;32083;47.360;9.650;2022-10-16T12:23:04;20.80;92.00
46378;DHT22;32083;47.360;9.650;2022-10-16T12:25:31;20.80;91.80
46378;DHT22;32083;47.360;9.650;2022-10-16T12:28:19;20.80;92.10
46378;DHT22;32083;47.360;9.650;2022-10-16T12:31:01;20.90;91.50
46378;DHT22;32083;47.360;9.650;2022-10-16T12:33:33;21.00;91.10
46378;DHT22;32083;47.360;9.650;2022-10-16T12:36:02;21.00;91.70
46378;DHT22;32083;47.360;9.650;2022-10-16T12:38:51;21.00;92.00
46378;DHT22;32083;47.360;9.650;2022-10-16T12:41:30;21.10;91.10
46378;DHT22;32083;47.360;9.650;2022-10-16T12:43:57;21.20;91.30
46378;DHT22;32083;47.360;9.650;2022-10-16T12:49:23;21.30;92.30
46378;DHT22;32083;47.360;9.650;2022-10-16T12:51:55;21.40;91.00
46378;DHT22;32083;47.360;9.650;2022-10-16T12:57:27;21.40;90.40
46378;DHT22;32083;47.360;9.650;2022-10-16T13:10:37;21.70;91.40
46378;DHT22;32083;47.360;9.650;2022-10-16T13:13:19;21.70;90.40
46378;DHT22;32083;47.360;9.650;2022-10-16T13:18:50;21.90;90.50
46378;DHT22;32083;47.360;9.650;2022-10-16T13:24:55;21.90;90.90
46378;DHT22;32083;47.360;9.650;2022-10-16T13:30:29;22.10;89.60
46378;DHT22;32083;47.360;9.650;2022-10-16T13:33:05;22.20;89.30
46378;DHT22;32083;47.360;9.650;2022-10-16T13:35:34;22.20;90.00
46378;DHT22;32083;47.360;9.650;2022-10-16T13:40:37;22.30;89.80
46378;DHT22;32083;47.360;9.650;2022-10-16T13:43:13;22.40;89.10
46378;DHT22;32083;47.360;9.650;2022-10-16T13:45:39;22.40;90.30
46378;DHT22;32083;47.360;9.650;2022-10-16T13:48:09;22.40;89.80
46378;DHT22;32083;47.360;9.650;2022-10-16T13:50:37;22.50;88.30
46378;DHT22;32083;47.360;9.650;2022-10-16T13:53:13;22.60;90.00
46378;DHT22;32083;47.360;9.650;2022-10-16T13:55:40;22.60;89.40
46378;DHT22;32083;47.360;9.650;2022-10-16T13:58:13;22.70;90.40
46378;DHT22;32083;47.360;9.650;2022-10-16T14:00:52;22.80;90.90
46378;DHT22;32083;47.360;9.650;2022-10-16T14:03:19;22.90;90.80
46378;DHT22;32083;47.360;9.650;2022-10-16T14:05:59;22.90;85.40
46378;DHT22;32083;47.360;9.650;2022-10-16T14:08:27;22.90;88.90
46378;DHT22;32083;47.360;9.650;2022-10-16T14:10:59;23.00;90.80
46378;DHT22;32083;47.360;9.650;2022-10-16T14:13:46;22.90;89.00
46378;DHT22;32083;47.360;9.650;2022-10-16T14:16:23;22.90;91.40
46378;DHT22;32083;47.360;9.650;2022-10-16T14:19:00;22.90;90.90
46378;DHT22;32083;47.360;9.650;2022-10-16T14:21:27;23.00;91.20
46378;DHT22;32083;47.360;9.650;2022-10-16T14:23:54;23.00;91.50
46378;DHT22;32083;47.360;9.650;2022-10-16T14:26:23;22.90;90.80
46378;DHT22;32083;47.360;9.650;2022-10-16T14:29:09;22.90;91.70
46378;DHT22;32083;47.360;9.650;2022-10-16T14:31:36;22.90;91.60
46378;DHT22;32083;47.360;9.650;2022-10-16T14:34:03;22.90;91.30
46378;DHT22;32083;47.360;9.650;2022-10-16T14:36:30;22.90;90.90
46378;DHT22;32083;47.360;9.650;2022-10-16T14:39:03;22.90;91.10
46378;DHT22;32083;47.360;9.650;2022-10-16T14:41:31;22.80;90.70
46378;DHT22;32083;47.360;9.650;2022-10-16T14:44:03;22.80;90.30
46378;DHT22;32083;47.360;9.650;2022-10-16T14:46:38;22.80;90.10
46378;DHT22;32083;47.360;9.650;2022-10-16T14:51:41;22.70;91.00
46378;DHT22;32083;47.360;9.650;2022-10-16T14:54:15;22.70;90.90
46378;DHT22;32083;47.360;9.650;2022-10-16T14:56:52;22.70;91.60
46378;DHT22;32083;47.360;9.650;2022-10-16T14:59:26;22.60;91.10
46378;DHT22;32083;47.360;9.650;2022-10-16T15:01:53;22.60;90.70
46378;DHT22;32083;47.360;9.650;2022-10-16T15:04:19;22.60;91.30
46378;DHT22;32083;47.360;9.650;2022-10-16T15:06:46;22.60;90.80
46378;DHT22;32083;47.360;9.650;2022-10-16T15:09:12;22.60;91.20
46378;DHT22;32083;47.360;9.650;2022-10-16T15:11:38;22.50;91.00
46378;DHT22;32083;47.360;9.650;2022-10-16T15:14:05;22.50;91.20
46378;DHT22;32083;47.360;9.650;2022-10-16T15:16:31;22.50;91.20
46378;DHT22;32083;47.360;9.650;2022-10-16T15:18:58;22.50;90.80
46378;DHT22;32083;47.360;9.650;2022-10-16T15:21:30;22.50;90.80
46378;DHT22;32083;47.360;9.650;2022-10-16T15:23:57;22.50;90.70
46378;DHT22;32083;47.360;9.650;2022-10-16T15:26:27;22.40;90.50
46378;DHT22;32083;47.360;9.650;2022-10-16T15:28:53;22.40;90.80
46378;DHT22;32083;47.360;9.650;2022-10-16T15:31:19;22.40;90.80
46378;DHT22;32083;47.360;9.650;2022-10-16T15:33:50;22.40;90.70
46378;DHT22;32083;47.360;9.650;2022-10-16T15:36:29;22.30;91.30
46378;DHT22;32083;47.360;9.650;2022-10-16T15:38:56;22.20;91.30
46378;DHT22;32083;47.360;9.650;2022-10-16T15:41:22;22.20;91.60
46378;DHT22;32083;47.360;9.650;2022-10-16T15:43:49;22.10;91.90
46378;DHT22;32083;47.360;9.650;2022-10-16T15:46:18;22.00;91.60
46378;DHT22;32083;47.360;9.650;2022-10-16T15:48:45;21.90;92.90
46378;DHT22;32083;47.360;9.650;2022-10-16T15:51:10;21.80;92.40
46378;DHT22;32083;47.360;9.650;2022-10-16T15:53:36;21.70;92.50
46378;DHT22;32083;47.360;9.650;2022-10-16T15:56:07;21.70;92.90
46378;DHT22;32083;47.360;9.650;2022-10-16T15:58:33;21.70;93.10
46378;DHT22;32083;47.360;9.650;2022-10-16T16:01:00;21.60;93.30
46378;DHT22;32083;47.360;9.650;2022-10-16T16:03:28;21.60;93.40
46378;DHT22;32083;47.360;9.650;2022-10-16T16:05:54;21.50;93.30
46378;DHT22;32083;47.360;9.650;2022-10-16T16:08:20;21.50;93.80
46378;DHT22;32083;47.360;9.650;2022-10-16T16:10:58;21.30;94.00
46378;DHT22;32083;47.360;9.650;2022-10-16T16:13:24;21.20;94.30
46378;DHT22;32083;47.360;9.650;2022-10-16T16:15:50;21.10;94.60
46378;DHT22;32083;47.360;9.650;2022-10-16T16:18:16;21.00;94.90
46378;DHT22;32083;47.360;9.650;2022-10-16T16:20:42;21.00;95.20
46378;DHT22;32083;47.360;9.650;2022-10-16T16:23:08;20.90;95.60
46378;DHT22;32083;47.360;9.650;2022-10-16T16:25:34;20.80;95.90
46378;DHT22;32083;47.360;9.650;2022-10-16T16:28:00;20.70;96.10
46378;DHT22;32083;47.360;9.650;2022-10-16T16:30:26;20.60;96.40
46378;DHT22;32083;47.360;9.650;2022-10-16T16:32:52;20.50;96.70
46378;DHT22;32083;47.360;9.650;2022-10-16T16:35:18;20.50;97.20
46378;DHT22;32083;47.360;9.650;2022-10-16T16:37:44;20.40;97.30
46378;DHT22;32083;47.360;9.650;2022-10-16T16:40:10;20.30;97.90
46378;DHT22;32083;47.360;9.650;2022-10-16T16:42:36;20.20;98.10
46378;DHT22;32083;47.360;9.650;2022-10-16T16:45:02;20.10;98.40
46378;DHT22;32083;47.360;9.650;2022-10-16T16:47:28;20.10;98.40
46378;DHT22;32083;47.360;9.650;2022-10-16T16:49:54;20.00;99.20
46378;DHT22;32083;47.360;9.650;2022-10-16T16:52:20;19.90;99.40
46378;DHT22;32083;47.360;9.650;2022-10-16T16:54:48;19.90;99.40
46378;DHT22;32083;47.360;9.650;2022-10-16T16:57:18;19.80;99.30
46378;DHT22;32083;47.360;9.650;2022-10-16T16:59:45;19.70;99.00
46378;DHT22;32083;47.360;9.650;2022-10-16T17:02:11;19.60;99.20
46378;DHT22;32083;47.360;9.650;2022-10-16T17:04:37;19.50;99.80
46378;DHT22;32083;47.360;9.650;2022-10-16T17:07:03;19.50;99.70
46378;DHT22;32083;47.360;9.650;2022-10-16T17:09:31;19.50;99.80
46378;DHT22;32083;47.360;9.650;2022-10-16T17:11:57;19.40;99.90
46378;DHT22;32083;47.360;9.650;2022-10-16T17:14:23;19.30;99.90
46378;DHT22;32083;47.360;9.650;2022-10-16T17:16:49;19.20;99.90
46378;DHT22;32083;47.360;9.650;2022-10-16T17:19:17;19.20;99.90
46378;DHT22;32083;47.360;9.650;2022-10-16T17:21:43;19.20;99.90
46378;DHT22;32083;47.360;9.650;2022-10-16T17:24:10;19.10;99.90
46378;DHT22;32083;47.360;9.650;2022-10-16T17:26:36;19.10;99.90
46378;DHT22;32083;47.360;9.650;2022-10-16T17:29:03;19.00;99.90
46378;DHT22;32083;47.360;9.650;2022-10-16T17:31:32;19.00;99.90
46378;DHT22;32083;47.360;9.650;2022-10-16T17:34:00;18.90;99.90
46378;DHT22;32083;47.360;9.650;2022-10-16T17:36:27;18.90;99.60
46378;DHT22;32083;47.360;9.650;2022-10-16T17:38:58;18.80;99.60
46378;DHT22;32083;47.360;9.650;2022-10-16T17:41:26;18.80;99.40
46378;DHT22;32083;47.360;9.650;2022-10-16T17:43:52;18.70;99.50
46378;DHT22;32083;47.360;9.650;2022-10-16T17:46:20;18.70;99.60
46378;DHT22;32083;47.360;9.650;2022-10-16T17:48:49;18.60;99.90
46378;DHT22;32083;47.360;9.650;2022-10-16T17:51:24;18.50;99.90
46378;DHT22;32083;47.360;9.650;2022-10-16T17:53:56;18.40;99.80
46378;DHT22;32083;47.360;9.650;2022-10-16T17:56:23;18.30;99.90
46378;DHT22;32083;47.360;9.650;2022-10-16T17:58:52;18.20;99.90
46378;DHT22;32083;47.360;9.650;2022-10-16T18:01:21;18.20;99.90
46378;DHT22;32083;47.360;9.650;2022-10-16T18:03:51;18.10;99.90
46378;DHT22;32083;47.360;9.650;2022-10-16T18:06:18;18.00;99.90
46378;DHT22;32083;47.360;9.650;2022-10-16T18:08:44;17.90;99.90
46378;DHT22;32083;47.360;9.650;2022-10-16T18:11:11;17.90;99.90
46378;DHT22;32083;47.360;9.650;2022-10-16T18:13:37;17.80;99.90
46378;DHT22;32083;47.360;9.650;2022-10-16T18:16:06;17.70;99.90
46378;DHT22;32083;47.360;9.650;2022-10-16T18:18:37;17.70;99.90
46378;DHT22;32083;47.360;9.650;2022-10-16T18:21:06;17.70;99.90
46378;DHT22;32083;47.360;9.650;2022-10-16T18:23:33;17.60;99.90
46378;DHT22;32083;47.360;9.650;2022-10-16T18:26:04;17.50;99.90
46378;DHT22;32083;47.360;9.650;2022-10-16T18:28:30;17.40;99.90
46378;DHT22;32083;47.360;9.650;2022-10-16T18:31:02;17.40;99.90
46378;DHT22;32083;47.360;9.650;2022-10-16T18:33:29;17.30;99.90
46378;DHT22;32083;47.360;9.650;2022-10-16T18:35:59;17.30;99.90
46378;DHT22;32083;47.360;9.650;2022-10-16T18:38:25;17.20;99.90
46378;DHT22;32083;47.360;9.650;2022-10-16T18:40:51;17.20;99.90